sensor_id;sensor_type;location;lat;lon;timestamp;P1;durP1;ratioP1;P2;durP2;ratioP2
11877;SDS011;5998;42.676;23.268;2024-01-15T00:00:57;61.77;;;30.93;;
11877;SDS011;5998;42.676;23.268;2024-01-15T00:03:23;54.50;;;28.87;;
11877;SDS011;5998;42.676;23.268;2024-01-15T00:05:50;51.63;;;30.03;;
11877;SDS011;5998;42.676;23.268;2024-01-15T00:08:17;52.00;;;28.67;;
11877;SDS011;5998;42.676;23.268;2024-01-15T00:10:43;68.90;;;31.17;;
11877;SDS011;5998;42.676;23.268;2024-01-15T00:13:10;48.97;;;27.73;;
11877;SDS011;5998;42.676;23.268;2024-01-15T00:15:37;48.20;;;28.20;;
11877;SDS011;5998;42.676;23.268;2024-01-15T00:18:05;54.63;;;29.30;;
11877;SDS011;5998;42.676;23.268;2024-01-15T00:20:32;54.03;;;27.87;;
11877;SDS011;5998;42.676;23.268;2024-01-15T00:22:58;50.70;;;28.40;;
11877;SDS011;5998;42.676;23.268;2024-01-15T00:25:25;51.40;;;28.30;;
11877;SDS011;5998;42.676;23.268;2024-01-15T00:27:52;47.13;;;26.57;;
11877;SDS011;5998;42.676;23.268;2024-01-15T00:30:18;50.80;;;28.60;;
11877;SDS011;5998;42.676;23.268;2024-01-15T00:32:45;51.03;;;27.20;;
11877;SDS011;5998;42.676;23.268;2024-01-15T00:35:13;52.47;;;29.13;;
11877;SDS011;5998;42.676;23.268;2024-01-15T00:37:40;55.07;;;28.57;;
11877;SDS011;5998;42.676;23.268;2024-01-15T00:40:07;62.83;;;30.37;;
11877;SDS011;5998;42.676;23.268;2024-01-15T00:42:34;58.63;;;31.57;;
11877;SDS011;5998;42.676;23.268;2024-01-15T00:45:01;52.70;;;27.93;;
11877;SDS011;5998;42.676;23.268;2024-01-15T00:47:27;47.53;;;27.47;;
11877;SDS011;5998;42.676;23.268;2024-01-15T00:49:54;46.73;;;26.30;;
11877;SDS011;5998;42.676;23.268;2024-01-15T00:52:22;44.23;;;25.90;;
11877;SDS011;5998;42.676;23.268;2024-01-15T00:54:49;102.07;;;31.67;;
11877;SDS011;5998;42.676;23.268;2024-01-15T00:57:15;48.23;;;26.90;;
11877;SDS011;5998;42.676;23.268;2024-01-15T00:59:44;44.50;;;25.73;;
11877;SDS011;5998;42.676;23.268;2024-01-15T01:02:11;50.23;;;26.53;;
11877;SDS011;5998;42.676;23.268;2024-01-15T01:04:37;50.17;;;27.13;;
11877;SDS011;5998;42.676;23.268;2024-01-15T01:07:04;48.10;;;27.27;;
11877;SDS011;5998;42.676;23.268;2024-01-15T01:09:32;64.00;;;26.83;;
11877;SDS011;5998;42.676;23.268;2024-01-15T01:11:59;50.87;;;27.63;;
11877;SDS011;5998;42.676;23.268;2024-01-15T01:14:25;49.40;;;27.70;;
11877;SDS011;5998;42.676;23.268;2024-01-15T01:16:52;59.10;;;27.57;;
11877;SDS011;5998;42.676;23.268;2024-01-15T01:19:19;51.50;;;28.37;;
11877;SDS011;5998;42.676;23.268;2024-01-15T01:21:45;47.93;;;26.80;;
11877;SDS011;5998;42.676;23.268;2024-01-15T01:24:12;45.80;;;24.73;;
11877;SDS011;5998;42.676;23.268;2024-01-15T01:26:40;54.40;;;26.40;;
11877;SDS011;5998;42.676;23.268;2024-01-15T01:29:07;43.90;;;25.63;;
11877;SDS011;5998;42.676;23.268;2024-01-15T01:31:34;121.40;;;30.47;;
11877;SDS011;5998;42.676;23.268;2024-01-15T01:34:00;41.77;;;24.53;;
11877;SDS011;5998;42.676;23.268;2024-01-15T01:36:27;39.70;;;22.07;;
11877;SDS011;5998;42.676;23.268;2024-01-15T01:38:54;33.07;;;20.20;;
11877;SDS011;5998;42.676;23.268;2024-01-15T01:41:20;36.43;;;21.60;;
11877;SDS011;5998;42.676;23.268;2024-01-15T01:43:50;94.13;;;26.63;;
11877;SDS011;5998;42.676;23.268;2024-01-15T01:46:17;35.80;;;21.40;;
11877;SDS011;5998;42.676;23.268;2024-01-15T01:48:44;40.07;;;22.97;;
11877;SDS011;5998;42.676;23.268;2024-01-15T01:51:10;44.00;;;21.93;;
11877;SDS011;5998;42.676;23.268;2024-01-15T01:53:38;36.30;;;20.70;;
11877;SDS011;5998;42.676;23.268;2024-01-15T01:56:05;82.70;;;24.80;;
11877;SDS011;5998;42.676;23.268;2024-01-15T01:58:32;33.57;;;19.20;;
11877;SDS011;5998;42.676;23.268;2024-01-15T02:01:01;40.03;;;22.67;;
11877;SDS011;5998;42.676;23.268;2024-01-15T02:03:28;39.63;;;21.70;;
11877;SDS011;5998;42.676;23.268;2024-01-15T02:05:56;40.27;;;22.00;;
11877;SDS011;5998;42.676;23.268;2024-01-15T02:08:23;39.17;;;22.43;;
11877;SDS011;5998;42.676;23.268;2024-01-15T02:10:50;38.83;;;21.10;;
11877;SDS011;5998;42.676;23.268;2024-01-15T02:13:16;40.03;;;21.20;;
11877;SDS011;5998;42.676;23.268;2024-01-15T02:15:44;39.10;;;21.00;;
11877;SDS011;5998;42.676;23.268;2024-01-15T02:18:12;41.53;;;22.17;;
11877;SDS011;5998;42.676;23.268;2024-01-15T02:20:38;41.60;;;21.33;;
11877;SDS011;5998;42.676;23.268;2024-01-15T02:23:09;39.50;;;21.30;;
11877;SDS011;5998;42.676;23.268;2024-01-15T02:25:37;37.87;;;22.10;;
11877;SDS011;5998;42.676;23.268;2024-01-15T02:28:04;47.03;;;25.43;;
11877;SDS011;5998;42.676;23.268;2024-01-15T02:30:32;56.00;;;24.40;;
11877;SDS011;5998;42.676;23.268;2024-01-15T02:33:03;43.67;;;23.20;;
11877;SDS011;5998;42.676;23.268;2024-01-15T02:35:30;43.60;;;22.63;;
11877;SDS011;5998;42.676;23.268;2024-01-15T02:37:56;38.13;;;21.53;;
11877;SDS011;5998;42.676;23.268;2024-01-15T02:40:24;38.57;;;20.37;;
11877;SDS011;5998;42.676;23.268;2024-01-15T02:42:51;40.07;;;21.83;;
11877;SDS011;5998;42.676;23.268;2024-01-15T02:45:18;34.37;;;20.30;;
11877;SDS011;5998;42.676;23.268;2024-01-15T02:47:44;37.40;;;20.07;;
11877;SDS011;5998;42.676;23.268;2024-01-15T02:50:11;35.53;;;21.97;;
11877;SDS011;5998;42.676;23.268;2024-01-15T02:52:38;36.97;;;20.33;;
11877;SDS011;5998;42.676;23.268;2024-01-15T02:55:05;37.50;;;20.50;;
11877;SDS011;5998;42.676;23.268;2024-01-15T02:57:34;35.73;;;21.07;;
11877;SDS011;5998;42.676;23.268;2024-01-15T03:00:01;31.87;;;18.90;;
11877;SDS011;5998;42.676;23.268;2024-01-15T03:02:27;35.07;;;19.37;;
11877;SDS011;5998;42.676;23.268;2024-01-15T03:04:56;34.60;;;19.37;;
11877;SDS011;5998;42.676;23.268;2024-01-15T03:07:23;28.23;;;15.63;;
11877;SDS011;5998;42.676;23.268;2024-01-15T03:09:50;32.80;;;20.87;;
11877;SDS011;5998;42.676;23.268;2024-01-15T03:12:16;38.70;;;21.23;;
11877;SDS011;5998;42.676;23.268;2024-01-15T03:14:44;39.83;;;20.10;;
11877;SDS011;5998;42.676;23.268;2024-01-15T03:17:11;33.73;;;19.73;;
11877;SDS011;5998;42.676;23.268;2024-01-15T03:19:38;34.40;;;19.33;;
11877;SDS011;5998;42.676;23.268;2024-01-15T03:22:05;35.73;;;19.17;;
11877;SDS011;5998;42.676;23.268;2024-01-15T03:24:33;32.03;;;19.03;;
11877;SDS011;5998;42.676;23.268;2024-01-15T03:27:00;33.40;;;19.57;;
11877;SDS011;5998;42.676;23.268;2024-01-15T03:29:27;37.50;;;21.17;;
11877;SDS011;5998;42.676;23.268;2024-01-15T03:31:55;34.63;;;20.13;;
11877;SDS011;5998;42.676;23.268;2024-01-15T03:34:22;36.17;;;20.93;;
11877;SDS011;5998;42.676;23.268;2024-01-15T03:36:49;39.37;;;20.83;;
11877;SDS011;5998;42.676;23.268;2024-01-15T03:39:15;40.13;;;20.37;;
11877;SDS011;5998;42.676;23.268;2024-01-15T03:41:42;37.80;;;21.30;;
11877;SDS011;5998;42.676;23.268;2024-01-15T03:44:09;39.40;;;20.37;;
11877;SDS011;5998;42.676;23.268;2024-01-15T03:46:35;42.30;;;23.97;;
11877;SDS011;5998;42.676;23.268;2024-01-15T03:49:04;50.60;;;23.90;;
11877;SDS011;5998;42.676;23.268;2024-01-15T03:51:31;40.03;;;23.00;;
11877;SDS011;5998;42.676;23.268;2024-01-15T03:53:57;39.53;;;21.53;;
11877;SDS011;5998;42.676;23.268;2024-01-15T03:56:24;41.90;;;23.73;;
11877;SDS011;5998;42.676;23.268;2024-01-15T03:58:50;39.80;;;23.03;;
11877;SDS011;5998;42.676;23.268;2024-01-15T04:01:17;41.40;;;21.77;;
11877;SDS011;5998;42.676;23.268;2024-01-15T04:03:44;40.10;;;22.73;;
11877;SDS011;5998;42.676;23.268;2024-01-15T04:06:12;38.47;;;22.87;;
11877;SDS011;5998;42.676;23.268;2024-01-15T04:08:39;48.73;;;25.90;;
11877;SDS011;5998;42.676;23.268;2024-01-15T04:11:05;47.77;;;27.07;;
11877;SDS011;5998;42.676;23.268;2024-01-15T04:13:32;55.63;;;26.00;;
11877;SDS011;5998;42.676;23.268;2024-01-15T04:15:59;65.43;;;35.27;;
11877;SDS011;5998;42.676;23.268;2024-01-15T04:18:26;49.43;;;28.90;;
11877;SDS011;5998;42.676;23.268;2024-01-15T04:20:53;58.33;;;34.27;;
11877;SDS011;5998;42.676;23.268;2024-01-15T04:23:21;71.13;;;40.00;;
11877;SDS011;5998;42.676;23.268;2024-01-15T04:25:48;92.20;;;47.57;;
11877;SDS011;5998;42.676;23.268;2024-01-15T04:28:14;68.97;;;38.00;;
11877;SDS011;5998;42.676;23.268;2024-01-15T04:30:41;62.83;;;35.17;;
11877;SDS011;5998;42.676;23.268;2024-01-15T04:33:08;64.10;;;36.53;;
11877;SDS011;5998;42.676;23.268;2024-01-15T04:35:34;60.07;;;34.77;;
11877;SDS011;5998;42.676;23.268;2024-01-15T04:38:01;61.53;;;34.63;;
11877;SDS011;5998;42.676;23.268;2024-01-15T04:40:29;75.57;;;41.60;;
11877;SDS011;5998;42.676;23.268;2024-01-15T04:42:56;62.37;;;38.00;;
11877;SDS011;5998;42.676;23.268;2024-01-15T04:45:23;81.33;;;43.70;;
11877;SDS011;5998;42.676;23.268;2024-01-15T04:47:53;70.03;;;38.87;;
11877;SDS011;5998;42.676;23.268;2024-01-15T04:50:20;71.43;;;41.67;;
11877;SDS011;5998;42.676;23.268;2024-01-15T04:52:47;96.53;;;41.07;;
11877;SDS011;5998;42.676;23.268;2024-01-15T04:55:14;81.27;;;43.90;;
11877;SDS011;5998;42.676;23.268;2024-01-15T04:57:42;82.57;;;45.43;;
11877;SDS011;5998;42.676;23.268;2024-01-15T05:00:09;80.90;;;45.30;;
11877;SDS011;5998;42.676;23.268;2024-01-15T05:02:37;82.93;;;44.07;;
11877;SDS011;5998;42.676;23.268;2024-01-15T05:05:04;86.83;;;48.83;;
11877;SDS011;5998;42.676;23.268;2024-01-15T05:07:30;89.50;;;48.87;;
11877;SDS011;5998;42.676;23.268;2024-01-15T05:09:57;87.23;;;47.97;;
11877;SDS011;5998;42.676;23.268;2024-01-15T05:12:24;82.80;;;47.67;;
11877;SDS011;5998;42.676;23.268;2024-01-15T05:14:52;95.03;;;50.27;;
11877;SDS011;5998;42.676;23.268;2024-01-15T05:17:18;90.40;;;50.33;;
11877;SDS011;5998;42.676;23.268;2024-01-15T05:19:45;98.13;;;52.20;;
11877;SDS011;5998;42.676;23.268;2024-01-15T05:22:12;99.80;;;52.57;;
11877;SDS011;5998;42.676;23.268;2024-01-15T05:24:38;89.50;;;50.43;;
11877;SDS011;5998;42.676;23.268;2024-01-15T05:27:06;86.47;;;50.27;;
11877;SDS011;5998;42.676;23.268;2024-01-15T05:29:33;87.83;;;47.27;;
11877;SDS011;5998;42.676;23.268;2024-01-15T05:32:01;83.57;;;47.03;;
11877;SDS011;5998;42.676;23.268;2024-01-15T05:34:27;93.33;;;49.93;;
11877;SDS011;5998;42.676;23.268;2024-01-15T05:36:54;85.53;;;47.23;;
11877;SDS011;5998;42.676;23.268;2024-01-15T05:39:21;242.50;;;58.33;;
11877;SDS011;5998;42.676;23.268;2024-01-15T05:41:47;81.67;;;44.27;;
11877;SDS011;5998;42.676;23.268;2024-01-15T05:44:14;74.90;;;43.57;;
11877;SDS011;5998;42.676;23.268;2024-01-15T05:46:40;80.70;;;45.80;;
11877;SDS011;5998;42.676;23.268;2024-01-15T05:49:08;115.93;;;50.47;;
11877;SDS011;5998;42.676;23.268;2024-01-15T05:51:35;82.27;;;46.57;;
11877;SDS011;5998;42.676;23.268;2024-01-15T05:54:02;78.37;;;44.43;;
11877;SDS011;5998;42.676;23.268;2024-01-15T05:56:29;88.73;;;48.60;;
11877;SDS011;5998;42.676;23.268;2024-01-15T05:58:55;83.07;;;47.63;;
11877;SDS011;5998;42.676;23.268;2024-01-15T06:01:22;77.73;;;46.17;;
11877;SDS011;5998;42.676;23.268;2024-01-15T06:03:49;81.43;;;41.73;;
11877;SDS011;5998;42.676;23.268;2024-01-15T06:06:17;79.87;;;46.47;;
11877;SDS011;5998;42.676;23.268;2024-01-15T06:08:43;77.00;;;41.53;;
11877;SDS011;5998;42.676;23.268;2024-01-15T06:11:10;84.33;;;45.60;;
11877;SDS011;5998;42.676;23.268;2024-01-15T06:13:37;84.20;;;46.53;;
11877;SDS011;5998;42.676;23.268;2024-01-15T06:16:11;82.67;;;48.77;;
11877;SDS011;5998;42.676;23.268;2024-01-15T06:18:39;76.23;;;42.07;;
11877;SDS011;5998;42.676;23.268;2024-01-15T06:21:05;100.67;;;54.53;;
11877;SDS011;5998;42.676;23.268;2024-01-15T06:23:33;81.87;;;46.93;;
11877;SDS011;5998;42.676;23.268;2024-01-15T06:26:00;93.67;;;49.17;;
11877;SDS011;5998;42.676;23.268;2024-01-15T06:28:28;90.77;;;48.57;;
11877;SDS011;5998;42.676;23.268;2024-01-15T06:30:55;88.63;;;48.77;;
11877;SDS011;5998;42.676;23.268;2024-01-15T06:33:22;79.27;;;44.30;;
11877;SDS011;5998;42.676;23.268;2024-01-15T06:35:48;91.30;;;48.80;;
11877;SDS011;5998;42.676;23.268;2024-01-15T06:38:15;89.23;;;48.73;;
11877;SDS011;5998;42.676;23.268;2024-01-15T06:40:44;82.43;;;45.43;;
11877;SDS011;5998;42.676;23.268;2024-01-15T06:43:10;91.10;;;49.90;;
11877;SDS011;5998;42.676;23.268;2024-01-15T06:45:37;92.87;;;50.70;;
11877;SDS011;5998;42.676;23.268;2024-01-15T06:48:04;102.37;;;55.50;;
11877;SDS011;5998;42.676;23.268;2024-01-15T06:50:32;92.63;;;51.80;;
11877;SDS011;5998;42.676;23.268;2024-01-15T06:52:59;86.80;;;48.97;;
11877;SDS011;5998;42.676;23.268;2024-01-15T06:55:26;82.20;;;48.13;;
11877;SDS011;5998;42.676;23.268;2024-01-15T06:57:54;90.17;;;47.50;;
11877;SDS011;5998;42.676;23.268;2024-01-15T07:00:21;80.70;;;46.27;;
11877;SDS011;5998;42.676;23.268;2024-01-15T07:02:47;87.50;;;46.03;;
11877;SDS011;5998;42.676;23.268;2024-01-15T07:05:14;87.20;;;46.43;;
11877;SDS011;5998;42.676;23.268;2024-01-15T07:07:41;84.87;;;49.00;;
11877;SDS011;5998;42.676;23.268;2024-01-15T07:10:08;82.87;;;46.90;;
11877;SDS011;5998;42.676;23.268;2024-01-15T07:12:35;88.93;;;49.63;;
11877;SDS011;5998;42.676;23.268;2024-01-15T07:15:03;81.53;;;45.83;;
11877;SDS011;5998;42.676;23.268;2024-01-15T07:17:32;79.80;;;44.40;;
11877;SDS011;5998;42.676;23.268;2024-01-15T07:19:58;86.53;;;45.63;;
11877;SDS011;5998;42.676;23.268;2024-01-15T07:22:25;74.40;;;44.40;;
11877;SDS011;5998;42.676;23.268;2024-01-15T07:24:52;82.57;;;46.07;;
11877;SDS011;5998;42.676;23.268;2024-01-15T07:27:19;76.73;;;44.90;;
11877;SDS011;5998;42.676;23.268;2024-01-15T07:29:46;73.80;;;43.07;;
11877;SDS011;5998;42.676;23.268;2024-01-15T07:32:15;72.17;;;40.30;;
11877;SDS011;5998;42.676;23.268;2024-01-15T07:34:42;75.17;;;44.37;;
11877;SDS011;5998;42.676;23.268;2024-01-15T07:37:08;82.30;;;47.73;;
11877;SDS011;5998;42.676;23.268;2024-01-15T07:39:35;81.33;;;48.73;;
11877;SDS011;5998;42.676;23.268;2024-01-15T07:42:03;87.73;;;48.93;;
11877;SDS011;5998;42.676;23.268;2024-01-15T07:44:30;79.03;;;46.97;;
11877;SDS011;5998;42.676;23.268;2024-01-15T07:46:56;77.77;;;46.67;;
11877;SDS011;5998;42.676;23.268;2024-01-15T07:49:24;74.27;;;44.50;;
11877;SDS011;5998;42.676;23.268;2024-01-15T07:51:51;77.50;;;45.50;;
11877;SDS011;5998;42.676;23.268;2024-01-15T07:54:18;79.60;;;43.97;;
11877;SDS011;5998;42.676;23.268;2024-01-15T07:56:54;75.27;;;43.97;;
11877;SDS011;5998;42.676;23.268;2024-01-15T07:59:21;68.80;;;41.07;;
11877;SDS011;5998;42.676;23.268;2024-01-15T08:01:48;79.07;;;46.07;;
11877;SDS011;5998;42.676;23.268;2024-01-15T08:04:14;74.17;;;44.43;;
11877;SDS011;5998;42.676;23.268;2024-01-15T08:06:43;68.00;;;42.43;;
11877;SDS011;5998;42.676;23.268;2024-01-15T08:09:10;68.60;;;42.60;;
11877;SDS011;5998;42.676;23.268;2024-01-15T08:11:39;66.57;;;40.07;;
11877;SDS011;5998;42.676;23.268;2024-01-15T08:14:06;70.07;;;40.83;;
11877;SDS011;5998;42.676;23.268;2024-01-15T08:16:33;69.33;;;41.10;;
11877;SDS011;5998;42.676;23.268;2024-01-15T08:18:59;67.50;;;41.53;;
11877;SDS011;5998;42.676;23.268;2024-01-15T08:21:26;68.27;;;43.33;;
11877;SDS011;5998;42.676;23.268;2024-01-15T08:23:56;69.40;;;43.27;;
11877;SDS011;5998;42.676;23.268;2024-01-15T08:26:23;77.07;;;45.70;;
11877;SDS011;5998;42.676;23.268;2024-01-15T08:28:49;79.77;;;49.23;;
11877;SDS011;5998;42.676;23.268;2024-01-15T08:31:16;81.30;;;47.13;;
11877;SDS011;5998;42.676;23.268;2024-01-15T08:33:43;85.20;;;52.20;;
11877;SDS011;5998;42.676;23.268;2024-01-15T08:36:10;84.17;;;54.90;;
11877;SDS011;5998;42.676;23.268;2024-01-15T08:38:36;82.77;;;47.93;;
11877;SDS011;5998;42.676;23.268;2024-01-15T08:41:05;73.80;;;46.23;;
11877;SDS011;5998;42.676;23.268;2024-01-15T08:43:33;75.60;;;45.77;;
11877;SDS011;5998;42.676;23.268;2024-01-15T08:46:00;72.20;;;45.30;;
11877;SDS011;5998;42.676;23.268;2024-01-15T08:48:27;81.20;;;47.33;;
11877;SDS011;5998;42.676;23.268;2024-01-15T08:50:53;68.03;;;41.57;;
11877;SDS011;5998;42.676;23.268;2024-01-15T08:53:21;78.43;;;43.00;;
11877;SDS011;5998;42.676;23.268;2024-01-15T08:55:48;59.37;;;37.30;;
11877;SDS011;5998;42.676;23.268;2024-01-15T08:58:16;56.23;;;35.27;;
11877;SDS011;5998;42.676;23.268;2024-01-15T09:00:43;53.10;;;33.60;;
11877;SDS011;5998;42.676;23.268;2024-01-15T09:03:10;50.00;;;31.73;;
11877;SDS011;5998;42.676;23.268;2024-01-15T09:05:35;52.70;;;31.20;;
11877;SDS011;5998;42.676;23.268;2024-01-15T09:08:02;49.70;;;29.47;;
11877;SDS011;5998;42.676;23.268;2024-01-15T09:10:30;50.90;;;29.47;;
11877;SDS011;5998;42.676;23.268;2024-01-15T09:12:56;55.07;;;30.37;;
11877;SDS011;5998;42.676;23.268;2024-01-15T09:15:24;46.37;;;28.23;;
11877;SDS011;5998;42.676;23.268;2024-01-15T09:17:51;48.17;;;28.43;;
11877;SDS011;5998;42.676;23.268;2024-01-15T09:20:18;46.77;;;26.87;;
11877;SDS011;5998;42.676;23.268;2024-01-15T09:22:44;47.30;;;28.30;;
11877;SDS011;5998;42.676;23.268;2024-01-15T09:25:11;41.80;;;24.17;;
11877;SDS011;5998;42.676;23.268;2024-01-15T09:27:38;48.83;;;29.40;;
11877;SDS011;5998;42.676;23.268;2024-01-15T09:30:05;42.67;;;27.33;;
11877;SDS011;5998;42.676;23.268;2024-01-15T09:32:34;39.10;;;23.83;;
11877;SDS011;5998;42.676;23.268;2024-01-15T09:35:01;44.47;;;26.73;;
11877;SDS011;5998;42.676;23.268;2024-01-15T09:37:28;41.83;;;25.50;;
11877;SDS011;5998;42.676;23.268;2024-01-15T09:39:54;54.27;;;29.20;;
11877;SDS011;5998;42.676;23.268;2024-01-15T09:42:22;60.50;;;34.67;;
11877;SDS011;5998;42.676;23.268;2024-01-15T09:44:51;66.70;;;33.73;;
11877;SDS011;5998;42.676;23.268;2024-01-15T09:47:18;43.93;;;25.50;;
11877;SDS011;5998;42.676;23.268;2024-01-15T09:49:46;48.33;;;30.30;;
11877;SDS011;5998;42.676;23.268;2024-01-15T09:52:13;49.77;;;31.10;;
11877;SDS011;5998;42.676;23.268;2024-01-15T09:54:43;36.23;;;18.50;;
11877;SDS011;5998;42.676;23.268;2024-01-15T09:57:10;55.07;;;31.97;;
11877;SDS011;5998;42.676;23.268;2024-01-15T09:59:37;54.17;;;31.57;;
11877;SDS011;5998;42.676;23.268;2024-01-15T10:02:06;39.17;;;22.77;;
11877;SDS011;5998;42.676;23.268;2024-01-15T10:04:34;50.70;;;29.97;;
11877;SDS011;5998;42.676;23.268;2024-01-15T10:07:02;71.40;;;35.80;;
11877;SDS011;5998;42.676;23.268;2024-01-15T10:09:31;64.80;;;37.40;;
11877;SDS011;5998;42.676;23.268;2024-01-15T10:11:58;62.40;;;36.33;;
11877;SDS011;5998;42.676;23.268;2024-01-15T10:14:25;71.70;;;43.93;;
11877;SDS011;5998;42.676;23.268;2024-01-15T10:16:52;69.33;;;38.97;;
11877;SDS011;5998;42.676;23.268;2024-01-15T10:19:20;65.10;;;34.77;;
11877;SDS011;5998;42.676;23.268;2024-01-15T10:21:47;53.30;;;32.10;;
11877;SDS011;5998;42.676;23.268;2024-01-15T10:24:15;60.83;;;35.63;;
11877;SDS011;5998;42.676;23.268;2024-01-15T10:26:41;35.77;;;20.77;;
11877;SDS011;5998;42.676;23.268;2024-01-15T10:29:09;40.87;;;24.60;;
11877;SDS011;5998;42.676;23.268;2024-01-15T10:31:37;40.30;;;26.40;;
11877;SDS011;5998;42.676;23.268;2024-01-15T10:34:10;39.33;;;25.83;;
11877;SDS011;5998;42.676;23.268;2024-01-15T10:36:40;33.57;;;20.37;;
11877;SDS011;5998;42.676;23.268;2024-01-15T10:39:07;37.77;;;22.40;;
11877;SDS011;5998;42.676;23.268;2024-01-15T10:41:35;30.97;;;20.63;;
11877;SDS011;5998;42.676;23.268;2024-01-15T10:44:02;37.57;;;24.03;;
11877;SDS011;5998;42.676;23.268;2024-01-15T10:46:29;38.97;;;23.83;;
11877;SDS011;5998;42.676;23.268;2024-01-15T10:48:56;42.37;;;25.03;;
11877;SDS011;5998;42.676;23.268;2024-01-15T10:51:23;44.90;;;23.83;;
11877;SDS011;5998;42.676;23.268;2024-01-15T10:53:51;46.00;;;26.10;;
11877;SDS011;5998;42.676;23.268;2024-01-15T10:56:19;45.33;;;26.00;;
11877;SDS011;5998;42.676;23.268;2024-01-15T10:58:50;37.73;;;24.07;;
11877;SDS011;5998;42.676;23.268;2024-01-15T11:01:17;38.43;;;22.27;;
11877;SDS011;5998;42.676;23.268;2024-01-15T11:03:44;38.37;;;22.90;;
11877;SDS011;5998;42.676;23.268;2024-01-15T11:06:16;31.37;;;18.87;;
11877;SDS011;5998;42.676;23.268;2024-01-15T11:08:44;20.17;;;12.33;;
11877;SDS011;5998;42.676;23.268;2024-01-15T11:11:12;29.07;;;16.83;;
11877;SDS011;5998;42.676;23.268;2024-01-15T11:13:39;29.07;;;17.77;;
11877;SDS011;5998;42.676;23.268;2024-01-15T11:16:09;26.27;;;16.23;;
11877;SDS011;5998;42.676;23.268;2024-01-15T11:18:37;25.77;;;14.10;;
11877;SDS011;5998;42.676;23.268;2024-01-15T11:21:24;29.60;;;16.33;;
11877;SDS011;5998;42.676;23.268;2024-01-15T11:23:53;30.67;;;16.97;;
11877;SDS011;5998;42.676;23.268;2024-01-15T11:26:35;26.50;;;17.13;;
11877;SDS011;5998;42.676;23.268;2024-01-15T11:29:03;25.43;;;14.87;;
11877;SDS011;5998;42.676;23.268;2024-01-15T11:34:56;28.23;;;15.20;;
11877;SDS011;5998;42.676;23.268;2024-01-15T11:37:24;24.37;;;15.30;;
11877;SDS011;5998;42.676;23.268;2024-01-15T11:39:52;24.00;;;15.80;;
11877;SDS011;5998;42.676;23.268;2024-01-15T11:42:20;21.23;;;15.10;;
11877;SDS011;5998;42.676;23.268;2024-01-15T11:44:48;24.63;;;14.10;;
11877;SDS011;5998;42.676;23.268;2024-01-15T11:47:15;21.53;;;14.30;;
11877;SDS011;5998;42.676;23.268;2024-01-15T11:50:00;25.43;;;15.10;;
11877;SDS011;5998;42.676;23.268;2024-01-15T11:52:32;21.70;;;14.67;;
11877;SDS011;5998;42.676;23.268;2024-01-15T11:55:07;21.30;;;14.60;;
11877;SDS011;5998;42.676;23.268;2024-01-15T11:57:42;25.40;;;15.30;;
11877;SDS011;5998;42.676;23.268;2024-01-15T12:00:13;25.97;;;16.20;;
11877;SDS011;5998;42.676;23.268;2024-01-15T12:02:40;25.93;;;15.77;;
11877;SDS011;5998;42.676;23.268;2024-01-15T12:05:09;25.37;;;15.07;;
11877;SDS011;5998;42.676;23.268;2024-01-15T12:07:37;32.60;;;17.20;;
11877;SDS011;5998;42.676;23.268;2024-01-15T12:10:07;22.57;;;14.27;;
11877;SDS011;5998;42.676;23.268;2024-01-15T12:12:39;26.13;;;17.17;;
11877;SDS011;5998;42.676;23.268;2024-01-15T12:15:18;27.53;;;18.03;;
11877;SDS011;5998;42.676;23.268;2024-01-15T12:17:45;29.50;;;17.93;;
11877;SDS011;5998;42.676;23.268;2024-01-15T12:20:14;30.13;;;18.07;;
11877;SDS011;5998;42.676;23.268;2024-01-15T12:22:41;28.83;;;18.10;;
11877;SDS011;5998;42.676;23.268;2024-01-15T12:25:08;28.40;;;16.07;;
11877;SDS011;5998;42.676;23.268;2024-01-15T12:27:35;25.93;;;15.70;;
11877;SDS011;5998;42.676;23.268;2024-01-15T12:30:02;23.77;;;15.40;;
11877;SDS011;5998;42.676;23.268;2024-01-15T12:32:29;23.93;;;14.27;;
11877;SDS011;5998;42.676;23.268;2024-01-15T12:34:56;32.20;;;16.17;;
11877;SDS011;5998;42.676;23.268;2024-01-15T12:37:24;29.23;;;15.60;;
11877;SDS011;5998;42.676;23.268;2024-01-15T12:39:51;28.07;;;16.23;;
11877;SDS011;5998;42.676;23.268;2024-01-15T12:42:20;27.87;;;17.03;;
11877;SDS011;5998;42.676;23.268;2024-01-15T12:44:47;27.60;;;16.50;;
11877;SDS011;5998;42.676;23.268;2024-01-15T12:47:14;23.50;;;16.10;;
11877;SDS011;5998;42.676;23.268;2024-01-15T12:49:46;26.90;;;16.73;;
11877;SDS011;5998;42.676;23.268;2024-01-15T12:52:14;28.53;;;16.67;;
11877;SDS011;5998;42.676;23.268;2024-01-15T12:54:42;26.83;;;16.73;;
11877;SDS011;5998;42.676;23.268;2024-01-15T12:57:09;29.93;;;18.00;;
11877;SDS011;5998;42.676;23.268;2024-01-15T12:59:35;30.60;;;17.50;;
11877;SDS011;5998;42.676;23.268;2024-01-15T13:02:02;28.43;;;17.73;;
11877;SDS011;5998;42.676;23.268;2024-01-15T13:04:29;23.17;;;14.87;;
11877;SDS011;5998;42.676;23.268;2024-01-15T13:06:56;28.03;;;18.13;;
11877;SDS011;5998;42.676;23.268;2024-01-15T13:09:23;32.93;;;17.83;;
11877;SDS011;5998;42.676;23.268;2024-01-15T13:11:51;31.87;;;17.87;;
11877;SDS011;5998;42.676;23.268;2024-01-15T13:14:18;30.63;;;18.70;;
11877;SDS011;5998;42.676;23.268;2024-01-15T13:16:45;28.40;;;18.67;;
11877;SDS011;5998;42.676;23.268;2024-01-15T13:19:12;29.60;;;17.40;;
11877;SDS011;5998;42.676;23.268;2024-01-15T13:21:39;36.20;;;22.03;;
11877;SDS011;5998;42.676;23.268;2024-01-15T13:24:06;35.10;;;20.40;;
11877;SDS011;5998;42.676;23.268;2024-01-15T13:26:34;31.53;;;21.17;;
11877;SDS011;5998;42.676;23.268;2024-01-15T13:29:03;31.60;;;19.67;;
11877;SDS011;5998;42.676;23.268;2024-01-15T13:31:30;30.40;;;19.80;;
11877;SDS011;5998;42.676;23.268;2024-01-15T13:33:57;30.63;;;19.63;;
11877;SDS011;5998;42.676;23.268;2024-01-15T13:36:23;45.23;;;23.37;;
11877;SDS011;5998;42.676;23.268;2024-01-15T13:38:50;33.93;;;21.63;;
11877;SDS011;5998;42.676;23.268;2024-01-15T13:41:18;34.67;;;19.40;;
11877;SDS011;5998;42.676;23.268;2024-01-15T13:43:48;33.57;;;20.87;;
11877;SDS011;5998;42.676;23.268;2024-01-15T13:46:17;30.67;;;19.77;;
11877;SDS011;5998;42.676;23.268;2024-01-15T13:48:44;32.87;;;20.93;;
11877;SDS011;5998;42.676;23.268;2024-01-15T13:51:10;40.63;;;22.33;;
11877;SDS011;5998;42.676;23.268;2024-01-15T13:53:37;33.93;;;19.70;;
11877;SDS011;5998;42.676;23.268;2024-01-15T13:56:05;34.90;;;19.73;;
11877;SDS011;5998;42.676;23.268;2024-01-15T13:58:32;30.03;;;20.57;;
11877;SDS011;5998;42.676;23.268;2024-01-15T14:00:59;33.20;;;19.80;;
11877;SDS011;5998;42.676;23.268;2024-01-15T14:03:28;33.13;;;20.47;;
11877;SDS011;5998;42.676;23.268;2024-01-15T14:05:55;35.37;;;19.87;;
11877;SDS011;5998;42.676;23.268;2024-01-15T14:08:22;32.40;;;19.30;;
11877;SDS011;5998;42.676;23.268;2024-01-15T14:10:48;32.83;;;20.73;;
11877;SDS011;5998;42.676;23.268;2024-01-15T14:13:15;36.70;;;21.33;;
11877;SDS011;5998;42.676;23.268;2024-01-15T14:15:42;57.37;;;23.73;;
11877;SDS011;5998;42.676;23.268;2024-01-15T14:18:09;40.40;;;21.60;;
11877;SDS011;5998;42.676;23.268;2024-01-15T14:20:37;34.97;;;20.43;;
11877;SDS011;5998;42.676;23.268;2024-01-15T14:23:04;48.10;;;21.40;;
11877;SDS011;5998;42.676;23.268;2024-01-15T14:25:30;58.30;;;22.70;;